sensor_id;sensor_type;location;lat;lon;timestamp;temperature;humidity
20284;DHT22;10301;50.832;4.080;2023-12-04T00:00:34;3.10;1.00
20284;DHT22;10301;50.832;4.080;2023-12-04T00:03:00;3.20;1.00
20284;DHT22;10301;50.832;4.080;2023-12-04T00:05:25;3.10;1.00
20284;DHT22;10301;50.832;4.080;2023-12-04T00:07:51;3.20;1.00
20284;DHT22;10301;50.832;4.080;2023-12-04T00:10:17;3.00;1.00
20284;DHT22;10301;50.832;4.080;2023-12-04T00:12:42;2.80;1.00
20284;DHT22;10301;50.832;4.080;2023-12-04T00:15:08;2.70;1.00
20284;DHT22;10301;50.832;4.080;2023-12-04T00:17:34;2.80;1.00
20284;DHT22;10301;50.832;4.080;2023-12-04T00:20:08;2.80;1.00
20284;DHT22;10301;50.832;4.080;2023-12-04T00:22:35;2.80;1.00
20284;DHT22;10301;50.832;4.080;2023-12-04T00:25:02;2.90;1.00
20284;DHT22;10301;50.832;4.080;2023-12-04T00:27:29;3.10;1.00
20284;DHT22;10301;50.832;4.080;2023-12-04T00:29:54;3.40;1.00
20284;DHT22;10301;50.832;4.080;2023-12-04T00:32:20;3.30;1.00
20284;DHT22;10301;50.832;4.080;2023-12-04T00:34:46;3.40;1.00
20284;DHT22;10301;50.832;4.080;2023-12-04T00:37:11;3.30;1.00
20284;DHT22;10301;50.832;4.080;2023-12-04T00:39:37;3.40;1.00
20284;DHT22;10301;50.832;4.080;2023-12-04T00:42:03;3.70;1.00
20284;DHT22;10301;50.832;4.080;2023-12-04T00:44:28;3.80;1.00
20284;DHT22;10301;50.832;4.080;2023-12-04T00:46:54;3.80;1.00
20284;DHT22;10301;50.832;4.080;2023-12-04T00:49:20;3.70;1.00
20284;DHT22;10301;50.832;4.080;2023-12-04T00:51:45;3.70;1.00
20284;DHT22;10301;50.832;4.080;2023-12-04T00:54:11;3.70;1.00
20284;DHT22;10301;50.832;4.080;2023-12-04T00:56:40;3.30;1.00
20284;DHT22;10301;50.832;4.080;2023-12-04T00:59:08;3.20;1.00
20284;DHT22;10301;50.832;4.080;2023-12-04T01:01:35;3.30;1.00
20284;DHT22;10301;50.832;4.080;2023-12-04T01:04:00;3.40;1.00
20284;DHT22;10301;50.832;4.080;2023-12-04T01:06:26;3.70;1.00
20284;DHT22;10301;50.832;4.080;2023-12-04T01:08:53;3.80;1.00
20284;DHT22;10301;50.832;4.080;2023-12-04T01:11:19;3.70;1.00
20284;DHT22;10301;50.832;4.080;2023-12-04T01:13:46;3.60;1.00
20284;DHT22;10301;50.832;4.080;2023-12-04T01:16:11;3.40;1.00
20284;DHT22;10301;50.832;4.080;2023-12-04T01:18:37;3.50;1.00
20284;DHT22;10301;50.832;4.080;2023-12-04T01:21:03;3.80;1.00
20284;DHT22;10301;50.832;4.080;2023-12-04T01:23:29;3.70;1.00
20284;DHT22;10301;50.832;4.080;2023-12-04T01:25:54;3.50;1.00
20284;DHT22;10301;50.832;4.080;2023-12-04T01:28:20;3.60;1.00
20284;DHT22;10301;50.832;4.080;2023-12-04T01:30:46;3.90;1.00
20284;DHT22;10301;50.832;4.080;2023-12-04T01:33:11;3.90;1.00
20284;DHT22;10301;50.832;4.080;2023-12-04T01:35:37;3.90;1.00
20284;DHT22;10301;50.832;4.080;2023-12-04T01:38:03;3.80;1.00
20284;DHT22;10301;50.832;4.080;2023-12-04T01:40:28;3.90;1.00
20284;DHT22;10301;50.832;4.080;2023-12-04T01:42:54;4.10;1.00
20284;DHT22;10301;50.832;4.080;2023-12-04T01:45:20;4.00;1.00
20284;DHT22;10301;50.832;4.080;2023-12-04T01:47:46;4.00;1.00
20284;DHT22;10301;50.832;4.080;2023-12-04T01:50:12;3.90;1.00
20284;DHT22;10301;50.832;4.080;2023-12-04T01:52:39;3.80;1.00
20284;DHT22;10301;50.832;4.080;2023-12-04T01:55:06;3.80;1.00
20284;DHT22;10301;50.832;4.080;2023-12-04T01:57:33;3.70;1.00
20284;DHT22;10301;50.832;4.080;2023-12-04T01:59:59;3.60;1.00
20284;DHT22;10301;50.832;4.080;2023-12-04T02:02:25;3.50;1.00
20284;DHT22;10301;50.832;4.080;2023-12-04T02:04:56;3.50;1.00
20284;DHT22;10301;50.832;4.080;2023-12-04T02:07:22;3.50;1.00
20284;DHT22;10301;50.832;4.080;2023-12-04T02:09:48;3.60;1.00
20284;DHT22;10301;50.832;4.080;2023-12-04T02:12:14;3.60;1.00
20284;DHT22;10301;50.832;4.080;2023-12-04T02:14:40;3.50;1.00
20284;DHT22;10301;50.832;4.080;2023-12-04T02:17:06;3.40;1.00
20284;DHT22;10301;50.832;4.080;2023-12-04T02:19:33;3.50;1.00
20284;DHT22;10301;50.832;4.080;2023-12-04T02:21:59;3.50;1.00
20284;DHT22;10301;50.832;4.080;2023-12-04T02:24:25;3.40;1.00
20284;DHT22;10301;50.832;4.080;2023-12-04T02:27:01;3.40;1.00
20284;DHT22;10301;50.832;4.080;2023-12-04T02:29:32;3.50;1.00
20284;DHT22;10301;50.832;4.080;2023-12-04T02:32:01;3.50;1.00
20284;DHT22;10301;50.832;4.080;2023-12-04T02:34:29;3.50;1.00
20284;DHT22;10301;50.832;4.080;2023-12-04T02:36:56;3.60;1.00
20284;DHT22;10301;50.832;4.080;2023-12-04T02:39:23;3.70;1.00
20284;DHT22;10301;50.832;4.080;2023-12-04T02:41:49;3.80;1.00
20284;DHT22;10301;50.832;4.080;2023-12-04T02:44:14;3.70;1.00
20284;DHT22;10301;50.832;4.080;2023-12-04T02:46:40;3.70;1.00
20284;DHT22;10301;50.832;4.080;2023-12-04T02:49:06;3.60;1.00
20284;DHT22;10301;50.832;4.080;2023-12-04T02:51:31;3.60;1.00
20284;DHT22;10301;50.832;4.080;2023-12-04T02:53:57;3.60;1.00
20284;DHT22;10301;50.832;4.080;2023-12-04T02:56:22;3.60;1.00
20284;DHT22;10301;50.832;4.080;2023-12-04T02:58:48;3.70;1.00
20284;DHT22;10301;50.832;4.080;2023-12-04T03:01:14;3.60;1.00
20284;DHT22;10301;50.832;4.080;2023-12-04T03:03:39;3.60;1.00
20284;DHT22;10301;50.832;4.080;2023-12-04T03:06:05;3.60;1.00
20284;DHT22;10301;50.832;4.080;2023-12-04T03:08:31;3.60;1.00
20284;DHT22;10301;50.832;4.080;2023-12-04T03:10:57;3.60;1.00
20284;DHT22;10301;50.832;4.080;2023-12-04T03:13:23;3.60;1.00
20284;DHT22;10301;50.832;4.080;2023-12-04T03:15:48;3.50;1.00
20284;DHT22;10301;50.832;4.080;2023-12-04T03:18:14;3.50;1.00
20284;DHT22;10301;50.832;4.080;2023-12-04T03:20:39;3.60;1.00
20284;DHT22;10301;50.832;4.080;2023-12-04T03:23:05;3.60;1.00
20284;DHT22;10301;50.832;4.080;2023-12-04T03:25:31;3.60;1.00
20284;DHT22;10301;50.832;4.080;2023-12-04T03:27:56;3.60;1.00
20284;DHT22;10301;50.832;4.080;2023-12-04T03:30:22;3.70;1.00
20284;DHT22;10301;50.832;4.080;2023-12-04T03:32:47;3.70;1.00
20284;DHT22;10301;50.832;4.080;2023-12-04T03:35:13;3.70;1.00
20284;DHT22;10301;50.832;4.080;2023-12-04T03:37:39;3.80;1.00
20284;DHT22;10301;50.832;4.080;2023-12-04T03:40:05;3.70;1.00
20284;DHT22;10301;50.832;4.080;2023-12-04T03:42:31;3.80;1.00
20284;DHT22;10301;50.832;4.080;2023-12-04T03:44:56;3.80;1.00
20284;DHT22;10301;50.832;4.080;2023-12-04T03:47:22;3.70;1.00
20284;DHT22;10301;50.832;4.080;2023-12-04T03:49:49;3.70;1.00
20284;DHT22;10301;50.832;4.080;2023-12-04T03:52:14;3.50;1.00
20284;DHT22;10301;50.832;4.080;2023-12-04T03:54:40;3.50;1.00
20284;DHT22;10301;50.832;4.080;2023-12-04T03:57:05;3.60;1.00
20284;DHT22;10301;50.832;4.080;2023-12-04T03:59:31;3.60;1.00
20284;DHT22;10301;50.832;4.080;2023-12-04T04:01:57;3.50;1.00
20284;DHT22;10301;50.832;4.080;2023-12-04T04:04:22;3.60;1.00
20284;DHT22;10301;50.832;4.080;2023-12-04T04:06:48;3.70;1.00
20284;DHT22;10301;50.832;4.080;2023-12-04T04:09:13;3.80;1.00
20284;DHT22;10301;50.832;4.080;2023-12-04T04:11:40;3.80;1.00
20284;DHT22;10301;50.832;4.080;2023-12-04T04:14:05;3.80;1.00
20284;DHT22;10301;50.832;4.080;2023-12-04T04:16:31;3.80;1.00
20284;DHT22;10301;50.832;4.080;2023-12-04T04:18:57;3.80;1.00
20284;DHT22;10301;50.832;4.080;2023-12-04T04:21:22;3.70;1.00
20284;DHT22;10301;50.832;4.080;2023-12-04T04:23:48;3.70;1.00
20284;DHT22;10301;50.832;4.080;2023-12-04T04:26:14;3.80;1.00
20284;DHT22;10301;50.832;4.080;2023-12-04T04:28:39;3.70;1.00
20284;DHT22;10301;50.832;4.080;2023-12-04T04:31:05;3.80;1.00
20284;DHT22;10301;50.832;4.080;2023-12-04T04:33:31;3.90;1.00
20284;DHT22;10301;50.832;4.080;2023-12-04T04:35:57;4.00;1.00
20284;DHT22;10301;50.832;4.080;2023-12-04T04:38:22;3.90;1.00
20284;DHT22;10301;50.832;4.080;2023-12-04T04:40:48;3.70;1.00
20284;DHT22;10301;50.832;4.080;2023-12-04T04:43:13;3.60;1.00
20284;DHT22;10301;50.832;4.080;2023-12-04T04:45:39;3.60;1.00
20284;DHT22;10301;50.832;4.080;2023-12-04T04:48:05;3.70;1.00
20284;DHT22;10301;50.832;4.080;2023-12-04T04:50:30;3.90;1.00
20284;DHT22;10301;50.832;4.080;2023-12-04T04:52:56;3.80;1.00
20284;DHT22;10301;50.832;4.080;2023-12-04T04:55:22;3.90;1.00
20284;DHT22;10301;50.832;4.080;2023-12-04T04:57:47;3.80;1.00
20284;DHT22;10301;50.832;4.080;2023-12-04T05:00:13;3.80;1.00
20284;DHT22;10301;50.832;4.080;2023-12-04T05:02:39;3.60;1.00
20284;DHT22;10301;50.832;4.080;2023-12-04T05:05:06;3.70;1.00
20284;DHT22;10301;50.832;4.080;2023-12-04T05:07:32;3.80;1.00
20284;DHT22;10301;50.832;4.080;2023-12-04T05:09:58;3.70;1.00
20284;DHT22;10301;50.832;4.080;2023-12-04T05:12:23;3.50;1.00
20284;DHT22;10301;50.832;4.080;2023-12-04T05:14:49;3.60;1.00
20284;DHT22;10301;50.832;4.080;2023-12-04T05:17:15;3.70;1.00
20284;DHT22;10301;50.832;4.080;2023-12-04T05:19:40;3.70;1.00
20284;DHT22;10301;50.832;4.080;2023-12-04T05:22:06;3.70;1.00
20284;DHT22;10301;50.832;4.080;2023-12-04T05:24:32;3.80;1.00
20284;DHT22;10301;50.832;4.080;2023-12-04T05:26:58;3.70;1.00
20284;DHT22;10301;50.832;4.080;2023-12-04T05:29:23;3.60;1.00
20284;DHT22;10301;50.832;4.080;2023-12-04T05:31:49;3.70;1.00
20284;DHT22;10301;50.832;4.080;2023-12-04T05:34:15;3.70;1.00
20284;DHT22;10301;50.832;4.080;2023-12-04T05:36:40;3.70;1.00
20284;DHT22;10301;50.832;4.080;2023-12-04T05:39:06;3.80;1.00
20284;DHT22;10301;50.832;4.080;2023-12-04T05:41:32;3.80;1.00
20284;DHT22;10301;50.832;4.080;2023-12-04T05:43:58;3.70;1.00
20284;DHT22;10301;50.832;4.080;2023-12-04T05:46:23;3.70;1.00
20284;DHT22;10301;50.832;4.080;2023-12-04T05:48:49;3.70;1.00
20284;DHT22;10301;50.832;4.080;2023-12-04T05:51:14;3.70;1.00
20284;DHT22;10301;50.832;4.080;2023-12-04T05:53:41;3.70;1.00
20284;DHT22;10301;50.832;4.080;2023-12-04T05:56:07;3.70;1.00
20284;DHT22;10301;50.832;4.080;2023-12-04T05:58:35;3.70;1.00
20284;DHT22;10301;50.832;4.080;2023-12-04T06:01:00;3.60;1.00
20284;DHT22;10301;50.832;4.080;2023-12-04T06:03:26;3.60;1.00
20284;DHT22;10301;50.832;4.080;2023-12-04T06:05:52;3.70;1.00
20284;DHT22;10301;50.832;4.080;2023-12-04T06:08:17;3.80;1.00
20284;DHT22;10301;50.832;4.080;2023-12-04T06:10:43;3.80;99.90
20284;DHT22;10301;50.832;4.080;2023-12-04T06:13:09;3.80;99.90
20284;DHT22;10301;50.832;4.080;2023-12-04T06:15:34;4.00;99.90
20284;DHT22;10301;50.832;4.080;2023-12-04T06:18:00;3.80;1.00
20284;DHT22;10301;50.832;4.080;2023-12-04T06:20:26;3.90;99.90
20284;DHT22;10301;50.832;4.080;2023-12-04T06:22:51;3.80;99.90
20284;DHT22;10301;50.832;4.080;2023-12-04T06:25:17;3.80;99.90
20284;DHT22;10301;50.832;4.080;2023-12-04T06:27:44;3.90;99.90
20284;DHT22;10301;50.832;4.080;2023-12-04T06:30:10;3.90;99.90
20284;DHT22;10301;50.832;4.080;2023-12-04T06:32:36;3.90;99.90
20284;DHT22;10301;50.832;4.080;2023-12-04T06:35:02;4.00;99.90
20284;DHT22;10301;50.832;4.080;2023-12-04T06:37:29;3.80;99.90
20284;DHT22;10301;50.832;4.080;2023-12-04T06:39:55;3.90;99.90
20284;DHT22;10301;50.832;4.080;2023-12-04T06:42:22;3.80;99.90
20284;DHT22;10301;50.832;4.080;2023-12-04T06:44:48;3.90;1.00
20284;DHT22;10301;50.832;4.080;2023-12-04T06:47:19;3.90;1.00
20284;DHT22;10301;50.832;4.080;2023-12-04T06:49:46;3.90;99.90
20284;DHT22;10301;50.832;4.080;2023-12-04T06:52:12;3.90;99.90
20284;DHT22;10301;50.832;4.080;2023-12-04T06:54:37;3.90;99.90
20284;DHT22;10301;50.832;4.080;2023-12-04T06:57:03;4.00;99.90
20284;DHT22;10301;50.832;4.080;2023-12-04T06:59:29;4.10;99.90
20284;DHT22;10301;50.832;4.080;2023-12-04T07:01:55;4.00;99.90
20284;DHT22;10301;50.832;4.080;2023-12-04T07:04:21;4.00;1.00
20284;DHT22;10301;50.832;4.080;2023-12-04T07:06:47;4.10;1.00
20284;DHT22;10301;50.832;4.080;2023-12-04T07:09:16;4.10;99.90
20284;DHT22;10301;50.832;4.080;2023-12-04T07:11:45;4.10;99.90
20284;DHT22;10301;50.832;4.080;2023-12-04T07:14:11;4.00;1.00
20284;DHT22;10301;50.832;4.080;2023-12-04T07:16:41;4.00;1.00
20284;DHT22;10301;50.832;4.080;2023-12-04T07:19:08;4.00;1.00
20284;DHT22;10301;50.832;4.080;2023-12-04T07:21:33;4.10;1.00
20284;DHT22;10301;50.832;4.080;2023-12-04T07:23:59;4.20;1.00
20284;DHT22;10301;50.832;4.080;2023-12-04T07:26:25;4.20;1.00
20284;DHT22;10301;50.832;4.080;2023-12-04T07:28:50;4.30;1.00
20284;DHT22;10301;50.832;4.080;2023-12-04T07:31:16;4.30;1.00
20284;DHT22;10301;50.832;4.080;2023-12-04T07:33:42;4.10;1.00
20284;DHT22;10301;50.832;4.080;2023-12-04T07:36:07;4.10;1.00
20284;DHT22;10301;50.832;4.080;2023-12-04T07:38:33;3.90;1.00
20284;DHT22;10301;50.832;4.080;2023-12-04T07:40:59;3.90;1.00
20284;DHT22;10301;50.832;4.080;2023-12-04T07:43:24;4.00;1.00
20284;DHT22;10301;50.832;4.080;2023-12-04T07:45:50;4.00;1.00
20284;DHT22;10301;50.832;4.080;2023-12-04T07:48:16;4.20;1.00
20284;DHT22;10301;50.832;4.080;2023-12-04T07:50:42;4.10;1.00
20284;DHT22;10301;50.832;4.080;2023-12-04T07:53:08;4.20;1.00
20284;DHT22;10301;50.832;4.080;2023-12-04T07:55:35;4.20;1.00
20284;DHT22;10301;50.832;4.080;2023-12-04T07:58:01;4.20;1.00
20284;DHT22;10301;50.832;4.080;2023-12-04T08:00:26;4.40;1.00
20284;DHT22;10301;50.832;4.080;2023-12-04T08:02:52;4.40;1.00
20284;DHT22;10301;50.832;4.080;2023-12-04T08:05:17;4.40;1.00
20284;DHT22;10301;50.832;4.080;2023-12-04T08:07:43;4.50;1.00
20284;DHT22;10301;50.832;4.080;2023-12-04T08:10:09;4.70;1.00
20284;DHT22;10301;50.832;4.080;2023-12-04T08:12:34;4.60;1.00
20284;DHT22;10301;50.832;4.080;2023-12-04T08:15:00;4.70;1.00
20284;DHT22;10301;50.832;4.080;2023-12-04T08:17:27;4.70;1.00
20284;DHT22;10301;50.832;4.080;2023-12-04T08:19:52;4.70;1.00
20284;DHT22;10301;50.832;4.080;2023-12-04T08:22:19;4.80;1.00
20284;DHT22;10301;50.832;4.080;2023-12-04T08:24:45;4.50;1.00
20284;DHT22;10301;50.832;4.080;2023-12-04T08:27:10;4.60;1.00
20284;DHT22;10301;50.832;4.080;2023-12-04T08:29:36;4.40;1.00
20284;DHT22;10301;50.832;4.080;2023-12-04T08:32:02;4.50;1.00
20284;DHT22;10301;50.832;4.080;2023-12-04T08:34:28;4.50;1.00
20284;DHT22;10301;50.832;4.080;2023-12-04T08:36:53;4.50;1.00
20284;DHT22;10301;50.832;4.080;2023-12-04T08:39:19;4.70;1.00
20284;DHT22;10301;50.832;4.080;2023-12-04T08:41:46;4.70;1.00
20284;DHT22;10301;50.832;4.080;2023-12-04T08:44:13;4.70;1.00
20284;DHT22;10301;50.832;4.080;2023-12-04T08:46:38;4.70;1.00
20284;DHT22;10301;50.832;4.080;2023-12-04T08:49:05;4.70;1.00
20284;DHT22;10301;50.832;4.080;2023-12-04T08:51:30;4.80;1.00
20284;DHT22;10301;50.832;4.080;2023-12-04T08:53:56;4.80;1.00
20284;DHT22;10301;50.832;4.080;2023-12-04T08:56:22;4.60;1.00
20284;DHT22;10301;50.832;4.080;2023-12-04T08:58:48;4.60;1.00
20284;DHT22;10301;50.832;4.080;2023-12-04T09:01:16;4.70;1.00
20284;DHT22;10301;50.832;4.080;2023-12-04T09:03:41;4.70;1.00
20284;DHT22;10301;50.832;4.080;2023-12-04T09:06:07;5.00;1.00
20284;DHT22;10301;50.832;4.080;2023-12-04T09:08:34;4.70;1.00
20284;DHT22;10301;50.832;4.080;2023-12-04T09:11:00;4.80;1.00
20284;DHT22;10301;50.832;4.080;2023-12-04T09:13:26;4.70;1.00
20284;DHT22;10301;50.832;4.080;2023-12-04T09:15:51;4.70;1.00
20284;DHT22;10301;50.832;4.080;2023-12-04T09:18:17;4.60;1.00
20284;DHT22;10301;50.832;4.080;2023-12-04T09:20:43;4.70;1.00
20284;DHT22;10301;50.832;4.080;2023-12-04T09:23:09;4.70;1.00
20284;DHT22;10301;50.832;4.080;2023-12-04T09:25:35;4.60;1.00
20284;DHT22;10301;50.832;4.080;2023-12-04T09:28:02;4.80;1.00
20284;DHT22;10301;50.832;4.080;2023-12-04T09:30:27;4.70;1.00
20284;DHT22;10301;50.832;4.080;2023-12-04T09:32:54;4.80;1.00
20284;DHT22;10301;50.832;4.080;2023-12-04T09:35:19;4.70;1.00
20284;DHT22;10301;50.832;4.080;2023-12-04T09:37:45;4.60;1.00
20284;DHT22;10301;50.832;4.080;2023-12-04T09:40:11;4.70;1.00
20284;DHT22;10301;50.832;4.080;2023-12-04T09:42:39;4.70;1.00
20284;DHT22;10301;50.832;4.080;2023-12-04T09:45:05;4.50;1.00
20284;DHT22;10301;50.832;4.080;2023-12-04T09:47:33;4.30;9.50
20284;DHT22;10301;50.832;4.080;2023-12-04T09:50:00;4.30;18.70
20284;DHT22;10301;50.832;4.080;2023-12-04T09:52:27;4.20;28.40
20284;DHT22;10301;50.832;4.080;2023-12-04T09:54:53;4.20;49.40
20284;DHT22;10301;50.832;4.080;2023-12-04T09:57:19;4.20;58.70
20284;DHT22;10301;50.832;4.080;2023-12-04T09:59:45;4.40;57.90
20284;DHT22;10301;50.832;4.080;2023-12-04T10:02:11;4.50;57.50
20284;DHT22;10301;50.832;4.080;2023-12-04T10:04:37;4.60;48.90
20284;DHT22;10301;50.832;4.080;2023-12-04T10:07:03;4.60;43.00
20284;DHT22;10301;50.832;4.080;2023-12-04T10:09:29;4.60;53.40
20284;DHT22;10301;50.832;4.080;2023-12-04T10:11:58;4.60;52.20
20284;DHT22;10301;50.832;4.080;2023-12-04T10:14:24;4.70;70.40
20284;DHT22;10301;50.832;4.080;2023-12-04T10:16:51;4.60;64.50
20284;DHT22;10301;50.832;4.080;2023-12-04T10:19:24;4.60;78.60
20284;DHT22;10301;50.832;4.080;2023-12-04T10:21:52;4.80;67.10
20284;DHT22;10301;50.832;4.080;2023-12-04T10:24:36;5.00;58.10
20284;DHT22;10301;50.832;4.080;2023-12-04T10:27:03;5.00;46.60
20284;DHT22;10301;50.832;4.080;2023-12-04T10:29:49;4.80;61.00
20284;DHT22;10301;50.832;4.080;2023-12-04T10:32:21;4.60;85.50
20284;DHT22;10301;50.832;4.080;2023-12-04T10:34:47;4.50;88.10
20284;DHT22;10301;50.832;4.080;2023-12-04T10:37:13;4.30;92.30
20284;DHT22;10301;50.832;4.080;2023-12-04T10:39:50;4.40;95.80
20284;DHT22;10301;50.832;4.080;2023-12-04T10:42:36;4.30;94.80
20284;DHT22;10301;50.832;4.080;2023-12-04T10:45:02;4.40;97.70
20284;DHT22;10301;50.832;4.080;2023-12-04T10:47:29;4.40;96.00
20284;DHT22;10301;50.832;4.080;2023-12-04T10:49:58;4.50;96.40
20284;DHT22;10301;50.832;4.080;2023-12-04T10:52:24;4.50;94.60
20284;DHT22;10301;50.832;4.080;2023-12-04T10:54:50;4.60;92.70
20284;DHT22;10301;50.832;4.080;2023-12-04T10:57:37;4.80;92.70
20284;DHT22;10301;50.832;4.080;2023-12-04T11:00:05;4.90;85.80
20284;DHT22;10301;50.832;4.080;2023-12-04T11:02:34;4.80;69.80
20284;DHT22;10301;50.832;4.080;2023-12-04T11:05:13;4.80;82.10
20284;DHT22;10301;50.832;4.080;2023-12-04T11:07:44;4.70;91.80
20284;DHT22;10301;50.832;4.080;2023-12-04T11:10:12;4.80;90.90
20284;DHT22;10301;50.832;4.080;2023-12-04T11:12:44;4.60;80.80
20284;DHT22;10301;50.832;4.080;2023-12-04T11:15:13;4.70;94.20
20284;DHT22;10301;50.832;4.080;2023-12-04T11:17:43;5.00;86.80
20284;DHT22;10301;50.832;4.080;2023-12-04T11:20:16;5.00;77.70
20284;DHT22;10301;50.832;4.080;2023-12-04T11:22:45;4.90;80.40
20284;DHT22;10301;50.832;4.080;2023-12-04T11:25:13;4.90;86.90
20284;DHT22;10301;50.832;4.080;2023-12-04T11:27:40;5.20;80.90
20284;DHT22;10301;50.832;4.080;2023-12-04T11:30:07;5.10;56.70
20284;DHT22;10301;50.832;4.080;2023-12-04T11:32:48;5.10;69.70
20284;DHT22;10301;50.832;4.080;2023-12-04T11:35:18;5.10;75.60
20284;DHT22;10301;50.832;4.080;2023-12-04T11:37:47;5.30;60.00
20284;DHT22;10301;50.832;4.080;2023-12-04T11:40:16;5.50;53.70
20284;DHT22;10301;50.832;4.080;2023-12-04T11:42:42;5.50;42.00
20284;DHT22;10301;50.832;4.080;2023-12-04T11:45:08;5.40;37.70
20284;DHT22;10301;50.832;4.080;2023-12-04T11:47:57;5.30;49.20
20284;DHT22;10301;50.832;4.080;2023-12-04T11:50:26;5.30;59.60
20284;DHT22;10301;50.832;4.080;2023-12-04T11:52:52;5.30;60.90
20284;DHT22;10301;50.832;4.080;2023-12-04T11:55:20;5.20;64.00
20284;DHT22;10301;50.832;4.080;2023-12-04T11:57:49;5.10;67.60
20284;DHT22;10301;50.832;4.080;2023-12-04T12:05:22;5.10;69.30
20284;DHT22;10301;50.832;4.080;2023-12-04T12:07:49;5.10;74.70
20284;DHT22;10301;50.832;4.080;2023-12-04T12:10:16;5.20;63.20
20284;DHT22;10301;50.832;4.080;2023-12-04T12:12:45;5.10;66.60
20284;DHT22;10301;50.832;4.080;2023-12-04T12:15:12;5.10;79.30
20284;DHT22;10301;50.832;4.080;2023-12-04T12:17:38;5.20;65.00
20284;DHT22;10301;50.832;4.080;2023-12-04T12:20:09;5.00;80.10
20284;DHT22;10301;50.832;4.080;2023-12-04T12:22:37;5.00;89.00
20284;DHT22;10301;50.832;4.080;2023-12-04T12:25:07;4.90;93.50
20284;DHT22;10301;50.832;4.080;2023-12-04T12:27:34;5.10;97.60
20284;DHT22;10301;50.832;4.080;2023-12-04T12:30:00;5.00;97.00
20284;DHT22;10301;50.832;4.080;2023-12-04T12:32:26;5.10;99.00
20284;DHT22;10301;50.832;4.080;2023-12-04T12:34:55;5.20;98.60
20284;DHT22;10301;50.832;4.080;2023-12-04T12:37:21;5.20;96.00
20284;DHT22;10301;50.832;4.080;2023-12-04T12:39:47;5.20;97.50
20284;DHT22;10301;50.832;4.080;2023-12-04T12:42:24;5.30;97.40
20284;DHT22;10301;50.832;4.080;2023-12-04T12:44:50;5.40;96.00
20284;DHT22;10301;50.832;4.080;2023-12-04T12:47:16;5.30;93.50
20284;DHT22;10301;50.832;4.080;2023-12-04T12:49:41;5.40;97.70
20284;DHT22;10301;50.832;4.080;2023-12-04T12:52:07;5.50;93.70
20284;DHT22;10301;50.832;4.080;2023-12-04T12:54:43;5.40;94.40
20284;DHT22;10301;50.832;4.080;2023-12-04T12:57:10;5.50;93.70
20284;DHT22;10301;50.832;4.080;2023-12-04T12:59:38;5.50;95.20
20284;DHT22;10301;50.832;4.080;2023-12-04T13:02:04;5.50;97.70
20284;DHT22;10301;50.832;4.080;2023-12-04T13:04:37;5.50;98.20
20284;DHT22;10301;50.832;4.080;2023-12-04T13:07:04;5.40;99.90
20284;DHT22;10301;50.832;4.080;2023-12-04T13:09:31;5.30;99.90
20284;DHT22;10301;50.832;4.080;2023-12-04T13:11:57;5.30;99.90
20284;DHT22;10301;50.832;4.080;2023-12-04T13:14:22;5.40;99.90
20284;DHT22;10301;50.832;4.080;2023-12-04T13:16:48;5.60;99.90
20284;DHT22;10301;50.832;4.080;2023-12-04T13:19:15;5.60;99.90
20284;DHT22;10301;50.832;4.080;2023-12-04T13:21:45;5.60;99.90
20284;DHT22;10301;50.832;4.080;2023-12-04T13:24:11;5.60;99.90
20284;DHT22;10301;50.832;4.080;2023-12-04T13:26:37;5.70;99.90
20284;DHT22;10301;50.832;4.080;2023-12-04T13:29:03;5.70;99.90
20284;DHT22;10301;50.832;4.080;2023-12-04T13:31:29;5.80;99.90
20284;DHT22;10301;50.832;4.080;2023-12-04T13:33:54;5.70;99.90
20284;DHT22;10301;50.832;4.080;2023-12-04T13:36:20;5.70;99.90
20284;DHT22;10301;50.832;4.080;2023-12-04T13:38:46;5.70;99.90
20284;DHT22;10301;50.832;4.080;2023-12-04T13:41:11;5.50;99.90
20284;DHT22;10301;50.832;4.080;2023-12-04T13:43:56;5.60;99.90
20284;DHT22;10301;50.832;4.080;2023-12-04T13:46:25;5.60;99.90
20284;DHT22;10301;50.832;4.080;2023-12-04T13:48:52;5.60;99.90
20284;DHT22;10301;50.832;4.080;2023-12-04T13:51:18;5.70;99.90
20284;DHT22;10301;50.832;4.080;2023-12-04T13:53:45;5.50;99.90
20284;DHT22;10301;50.832;4.080;2023-12-04T13:56:14;5.60;99.90
20284;DHT22;10301;50.832;4.080;2023-12-04T13:58:46;5.60;99.90
20284;DHT22;10301;50.832;4.080;2023-12-04T14:01:14;5.60;99.90
20284;DHT22;10301;50.832;4.080;2023-12-04T14:03:43;5.70;99.90
20284;DHT22;10301;50.832;4.080;2023-12-04T14:06:09;5.70;99.90
20284;DHT22;10301;50.832;4.080;2023-12-04T14:08:35;5.70;99.90
20284;DHT22;10301;50.832;4.080;2023-12-04T14:11:02;5.70;99.90
20284;DHT22;10301;50.832;4.080;2023-12-04T14:13:28;5.70;99.90
20284;DHT22;10301;50.832;4.080;2023-12-04T14:15:53;5.80;99.90
20284;DHT22;10301;50.832;4.080;2023-12-04T14:18:20;5.90;99.90
20284;DHT22;10301;50.832;4.080;2023-12-04T14:20:46;5.90;99.90
20284;DHT22;10301;50.832;4.080;2023-12-04T14:23:13;6.00;99.90
20284;DHT22;10301;50.832;4.080;2023-12-04T14:25:40;6.10;99.90
20284;DHT22;10301;50.832;4.080;2023-12-04T14:28:06;6.10;99.90
20284;DHT22;10301;50.832;4.080;2023-12-04T14:30:32;6.10;99.90
20284;DHT22;10301;50.832;4.080;2023-12-04T14:32:58;6.10;99.90
20284;DHT22;10301;50.832;4.080;2023-12-04T14:35:24;6.10;99.90
20284;DHT22;10301;50.832;4.080;2023-12-04T14:37:49;6.10;99.90
20284;DHT22;10301;50.832;4.080;2023-12-04T14:40:18;6.20;99.90
20284;DHT22;10301;50.832;4.080;2023-12-04T14:42:45;6.30;99.90
20284;DHT22;10301;50.832;4.080;2023-12-04T14:45:12;6.20;99.90
20284;DHT22;10301;50.832;4.080;2023-12-04T14:47:38;6.10;99.90
20284;DHT22;10301;50.832;4.080;2023-12-04T14:50:05;6.20;99.90
20284;DHT22;10301;50.832;4.080;2023-12-04T14:52:32;6.10;99.90
20284;DHT22;10301;50.832;4.080;2023-12-04T14:54:59;6.00;99.90
20284;DHT22;10301;50.832;4.080;2023-12-04T14:57:54;6.10;99.90
20284;DHT22;10301;50.832;4.080;2023-12-04T15:00:19;6.10;99.90
20284;DHT22;10301;50.832;4.080;2023-12-04T15:03:04;6.00;99.90
20284;DHT22;10301;50.832;4.080;2023-12-04T15:05:55;6.10;99.90
20284;DHT22;10301;50.832;4.080;2023-12-04T15:08:38;6.00;99.90
20284;DHT22;10301;50.832;4.080;2023-12-04T15:11:10;5.90;99.90
20284;DHT22;10301;50.832;4.080;2023-12-04T15:13:56;5.90;99.90
20284;DHT22;10301;50.832;4.080;2023-12-04T15:16:33;5.90;99.90
20284;DHT22;10301;50.832;4.080;2023-12-04T15:18:59;5.90;99.90
20284;DHT22;10301;50.832;4.080;2023-12-04T15:21:30;5.90;99.90
20284;DHT22;10301;50.832;4.080;2023-12-04T15:23:56;5.90;99.90
20284;DHT22;10301;50.832;4.080;2023-12-04T15:26:23;5.90;99.90
20284;DHT22;10301;50.832;4.080;2023-12-04T15:28:49;5.90;99.90
20284;DHT22;10301;50.832;4.080;2023-12-04T15:31:15;5.90;99.90
20284;DHT22;10301;50.832;4.080;2023-12-04T15:33:40;5.90;99.90
20284;DHT22;10301;50.832;4.080;2023-12-04T15:36:06;6.00;99.90
20284;DHT22;10301;50.832;4.080;2023-12-04T15:38:35;6.10;99.90
20284;DHT22;10301;50.832;4.080;2023-12-04T15:41:00;6.20;99.90
20284;DHT22;10301;50.832;4.080;2023-12-04T15:43:26;6.10;99.90
20284;DHT22;10301;50.832;4.080;2023-12-04T15:45:51;6.00;99.90
20284;DHT22;10301;50.832;4.080;2023-12-04T15:48:17;6.00;99.90
20284;DHT22;10301;50.832;4.080;2023-12-04T15:50:43;6.00;99.90
20284;DHT22;10301;50.832;4.080;2023-12-04T15:53:09;6.00;99.90
20284;DHT22;10301;50.832;4.080;2023-12-04T15:55:34;6.20;99.90
20284;DHT22;10301;50.832;4.080;2023-12-04T15:58:01;6.10;99.90